TimeEDT,TemperatureF,Dew PointF,Humidity,Sea Level PressureIn,VisibilityMPH,Wind Direction,Wind SpeedMPH,Gust SpeedMPH,PrecipitationIn,Events,Conditions,WindDirDegrees,DateUTC
12:56 AM,61.0,57.9,90,30.14,10.0,Calm,Calm,-,N/A,,Clear,0,2012-10-04 04:56:00
1:56 AM,60.1,57.9,93,30.15,9.0,WNW,3.5,-,N/A,,Clear,300,2012-10-04 05:56:00
2:56 AM,60.1,55.9,86,30.15,10.0,NNW,3.5,-,N/A,,Overcast,340,2012-10-04 06:56:00
3:56 AM,59.0,55.9,90,30.15,10.0,Calm,Calm,-,N/A,,Clear,0,2012-10-04 07:56:00
4:56 AM,57.9,55.0,90,30.16,10.0,Calm,Calm,-,N/A,,Scattered Clouds,0,2012-10-04 08:56:00
5:56 AM,57.9,55.9,93,30.17,9.0,Calm,Calm,-,N/A,,Clear,0,2012-10-04 09:56:00
6:56 AM,57.0,55.0,93,30.17,9.0,Calm,Calm,-,N/A,,Partly Cloudy,0,2012-10-04 10:56:00
7:56 AM,55.9,54.0,93,30.18,6.0,Calm,Calm,-,N/A,,Scattered Clouds,0,2012-10-04 11:56:00
8:56 AM,59.0,55.9,90,30.17,10.0,Calm,Calm,-,N/A,,Clear,0,2012-10-04 12:56:00
9:56 AM,61.0,55.9,83,30.18,10.0,SW,5.8,-,N/A,,Clear,230,2012-10-04 13:56:00
10:56 AM,64.0,53.1,67,30.18,10.0,West,10.4,-,N/A,,Clear,270,2012-10-04 14:56:00
11:56 AM,64.0,53.1,67,30.18,10.0,West,11.5,-,N/A,,Clear,260,2012-10-04 15:56:00
12:56 PM,68.0,52.0,56,30.16,10.0,West,11.5,-,N/A,,Partly Cloudy,270,2012-10-04 16:56:00
1:56 PM,68.0,50.0,52,30.15,10.0,SW,15.0,23.0,N/A,,Clear,230,2012-10-04 17:56:00
2:56 PM,70.0,48.0,46,30.13,10.0,WSW,13.8,-,N/A,,Clear,250,2012-10-04 18:56:00
3:56 PM,70.0,48.0,46,30.12,10.0,West,16.1,20.7,N/A,,Clear,260,2012-10-04 19:56:00
4:56 PM,66.9,48.0,51,30.13,10.0,WSW,11.5,-,N/A,,Scattered Clouds,240,2012-10-04 20:56:00
5:56 PM,68.0,48.9,50,30.12,10.0,SW,10.4,-,N/A,,Mostly Cloudy,230,2012-10-04 21:56:00
6:56 PM,63.0,48.9,60,30.13,10.0,SW,4.6,-,N/A,,Overcast,230,2012-10-04 22:56:00
7:56 PM,62.1,48.9,62,30.13,10.0,SSW,3.5,-,N/A,,Overcast,210,2012-10-04 23:56:00
8:56 PM,62.1,50.0,65,30.13,10.0,WSW,5.8,-,N/A,,Overcast,240,2012-10-05 00:56:00
10:56 PM,57.0,50.0,77,30.13,10.0,SW,4.6,-,N/A,,Clear,230,2012-10-05 02:56:00
11:56 PM,55.0,50.0,83,30.12,10.0,WSW,4.6,-,N/A,,Clear,240,2012-10-05 03:56:00